Terminal Aerodrome Forecast
Issued by NWS Upton, NY

Home | Current Version | Previous Version | Text Only | Print | Product List | Glossary On
Versions: 1 2 3 4 5 6 7 8 9 10 11 12 13 14 15 16 17 18 19 20 21 22 23 24 25 26
000
FTUS41 KOKX 200800 AAA
TAFBDR
TAF AMD
KBDR 200832Z 2009/2106 14007KT P6SM SCT025 BKN040
     FM200900 15006KT P6SM OVC025
     FM201500 16009KT P6SM BKN035
     FM201900 18012G18KT P6SM SCT040
     FM210000 17008KT P6SM BKN040=

USA.gov is the U.S. government's official web portal to all federal, state and local government web resources and services.